createdAt,value
2019-04-16T00:05:03.817Z,23.7
2019-04-16T00:20:06.935Z,23.6
2019-04-16T00:35:03.214Z,23.6
2019-04-16T00:50:03.394Z,23.6
2019-04-16T01:05:04.220Z,23.6
2019-04-16T01:20:03.635Z,23.4
2019-04-16T01:35:05.062Z,23.3
2019-04-16T01:50:03.235Z,23.2
2019-04-16T02:05:03.306Z,23.1
2019-04-16T02:20:05.800Z,23.1
2019-04-16T02:35:04.031Z,23
2019-04-16T02:50:03.235Z,23
2019-04-16T03:05:05.301Z,23
2019-04-16T03:20:04.557Z,22.9
2019-04-16T03:35:04.380Z,22.9
2019-04-16T03:50:04.240Z,22.9
2019-04-16T04:05:06.632Z,22.9
2019-04-16T04:20:04.761Z,22.9
2019-04-16T04:35:02.923Z,22.9
2019-04-16T04:50:04.265Z,22.9
2019-04-16T05:05:05.258Z,22.9
2019-04-16T05:20:04.057Z,23
2019-04-16T05:35:08.916Z,23.1
2019-04-16T05:50:04.527Z,23.3
2019-04-16T06:05:04.396Z,23.4
2019-04-16T06:20:04.776Z,23.5
2019-04-16T06:35:06.158Z,23.6
2019-04-16T06:50:05.086Z,23.7
2019-04-16T07:05:04.235Z,23.7
2019-04-16T07:20:04.913Z,24
2019-04-16T07:35:03.184Z,24.1
2019-04-16T07:50:03.793Z,24.2
2019-04-16T08:05:08.616Z,24.3
2019-04-16T08:20:06.803Z,24.4
2019-04-16T08:35:05.838Z,24.5
2019-04-16T08:50:06.178Z,24.6
2019-04-16T09:05:07.352Z,24.7
2019-04-16T09:20:06.365Z,24.8
2019-04-16T09:35:09.466Z,24.9
2019-04-16T09:50:10.979Z,24.9
2019-04-16T10:05:03.549Z,25
2019-04-16T10:20:04.605Z,25.1
2019-04-16T10:35:04.458Z,25.1
2019-04-16T10:50:03.448Z,25.1
2019-04-16T11:05:04.826Z,25.1
2019-04-16T11:20:03.492Z,25.2
2019-04-16T11:35:05.973Z,25.3
2019-04-16T11:50:03.379Z,25.4
2019-04-16T12:05:03.800Z,25.4
2019-04-16T12:20:04.056Z,25.5
2019-04-16T12:35:03.560Z,25.4
2019-04-16T12:50:06.902Z,25.4
2019-04-16T13:05:03.108Z,25.4
2019-04-16T13:20:04.119Z,25.4
2019-04-16T13:35:06.118Z,25.4
2019-04-16T13:50:04.803Z,25.3
2019-04-16T14:05:05.268Z,25.3
2019-04-16T14:20:08.541Z,25.2
2019-04-16T14:35:03.504Z,25.2
2019-04-16T14:50:05.099Z,25.1
2019-04-16T15:05:04.079Z,25.1
2019-04-16T15:20:03.404Z,25
2019-04-16T15:35:04.215Z,25
2019-04-16T15:50:04.568Z,24.9
2019-04-16T16:05:04.361Z,24.9
2019-04-16T16:20:09.547Z,24.8
2019-04-16T16:35:03.539Z,24.8
2019-04-16T16:50:07.255Z,24.7
2019-04-16T17:05:04.919Z,24.6
2019-04-16T17:20:04.790Z,24.4
2019-04-16T17:35:06.699Z,24.3
2019-04-16T17:50:05.662Z,24.2
2019-04-16T18:05:06.093Z,24.1
2019-04-16T18:20:04.031Z,23.8
2019-04-16T18:35:03.902Z,23.7
2019-04-16T18:50:03.179Z,23.5
2019-04-16T19:05:04.952Z,23.4
2019-04-16T19:20:04.808Z,23.2
2019-04-16T19:35:09.771Z,23.1
2019-04-16T19:50:03.370Z,22.9
2019-04-16T20:05:06.760Z,22.8
2019-04-16T20:20:05.124Z,22.7
2019-04-16T20:35:03.814Z,22.6
2019-04-16T20:50:04.866Z,22.6
2019-04-16T21:05:04.610Z,22.5
2019-04-16T21:20:03.279Z,22.5
2019-04-16T21:35:06.079Z,22.6
2019-04-16T21:50:05.508Z,22.6
2019-04-16T22:05:03.925Z,22.7
2019-04-16T22:20:05.750Z,22.7
2019-04-16T22:35:04.636Z,22.7
2019-04-16T22:50:14.683Z,22.7
2019-04-16T23:05:04.055Z,22.7
2019-04-16T23:20:03.387Z,22.7
2019-04-16T23:35:09.159Z,22.7
2019-04-16T23:50:03.995Z,22.7
